createdAt,value
2017-07-26T00:00:26.955Z,42.60
2017-07-26T00:02:54.367Z,40.03
2017-07-26T00:05:21.760Z,41.77
2017-07-26T00:07:49.161Z,41.70
2017-07-26T00:10:16.560Z,38.43
2017-07-26T00:12:43.983Z,40.40
2017-07-26T00:15:11.383Z,41.23
2017-07-26T00:17:38.787Z,41.30
2017-07-26T00:20:06.201Z,42.23
2017-07-26T00:22:33.660Z,38.80
2017-07-26T00:25:01.103Z,39.27
2017-07-26T00:27:28.515Z,42.00
2017-07-26T00:29:55.910Z,40.33
2017-07-26T00:32:23.307Z,41.50
2017-07-26T00:34:50.738Z,42.57
2017-07-26T00:37:18.139Z,40.27
2017-07-26T00:39:45.556Z,42.37
2017-07-26T00:42:12.975Z,41.20
2017-07-26T00:44:40.380Z,40.00
2017-07-26T00:47:07.783Z,39.97
2017-07-26T00:49:35.347Z,38.53
2017-07-26T00:52:02.746Z,39.20
2017-07-26T00:54:30.152Z,39.43
2017-07-26T00:56:57.577Z,38.97
2017-07-26T00:59:24.964Z,42.60
2017-07-26T01:01:52.360Z,41.67
2017-07-26T01:04:19.776Z,45.90
2017-07-26T01:06:47.176Z,48.10
2017-07-26T01:09:14.575Z,48.50
2017-07-26T01:11:41.996Z,44.23
2017-07-26T01:14:09.399Z,40.77
2017-07-26T01:16:36.797Z,40.60
2017-07-26T01:19:04.229Z,42.67
2017-07-26T01:21:31.608Z,41.23
2017-07-26T01:23:59.010Z,39.37
2017-07-26T01:26:26.432Z,40.43
2017-07-26T01:28:53.844Z,38.13
2017-07-26T01:31:21.236Z,39.87
2017-07-26T01:33:48.639Z,38.60
2017-07-26T01:36:16.039Z,40.80
2017-07-26T01:38:43.452Z,39.57
2017-07-26T01:41:10.867Z,40.20
2017-07-26T01:43:38.269Z,42.37
2017-07-26T01:46:05.683Z,40.97
2017-07-26T01:48:33.104Z,42.77
2017-07-26T01:51:00.495Z,41.23
2017-07-26T01:53:27.925Z,38.03
2017-07-26T01:55:55.334Z,43.83
2017-07-26T01:58:22.734Z,42.63
2017-07-26T02:00:50.128Z,39.87
2017-07-26T02:03:17.539Z,39.50
2017-07-26T02:05:44.935Z,40.00
2017-07-26T02:08:12.343Z,39.30
2017-07-26T02:10:39.751Z,38.27
2017-07-26T02:13:07.155Z,37.20
2017-07-26T02:15:34.571Z,36.13
2017-07-26T02:18:02.144Z,34.23
2017-07-26T02:20:29.578Z,37.47
2017-07-26T02:22:56.991Z,38.10
2017-07-26T02:25:24.399Z,37.70
2017-07-26T02:27:51.787Z,37.93
2017-07-26T02:30:19.196Z,36.80
2017-07-26T02:32:46.607Z,37.33
2017-07-26T02:35:14.022Z,37.83
2017-07-26T02:37:41.415Z,36.33
2017-07-26T02:40:08.834Z,38.30
2017-07-26T02:42:36.223Z,37.33
2017-07-26T02:45:03.624Z,37.17
2017-07-26T02:47:31.191Z,40.67
2017-07-26T02:49:58.584Z,38.20
2017-07-26T02:52:25.988Z,38.67
2017-07-26T02:54:53.626Z,39.77
2017-07-26T02:57:21.028Z,38.57
2017-07-26T02:59:48.419Z,43.63
2017-07-26T03:02:15.826Z,41.90
2017-07-26T03:04:43.226Z,42.53
2017-07-26T03:07:10.630Z,42.87
2017-07-26T03:09:38.040Z,44.60
2017-07-26T03:12:05.440Z,39.77
2017-07-26T03:14:32.828Z,42.13
2017-07-26T03:17:00.244Z,42.90
2017-07-26T03:19:27.635Z,41.13
2017-07-26T03:21:55.051Z,38.43
2017-07-26T03:24:22.463Z,40.23
2017-07-26T03:26:49.871Z,39.87
2017-07-26T03:29:17.284Z,38.53
2017-07-26T03:31:44.690Z,37.87
2017-07-26T03:34:12.092Z,35.87
2017-07-26T03:36:39.500Z,38.57
2017-07-26T03:39:06.928Z,36.30
2017-07-26T03:41:34.327Z,38.93
2017-07-26T03:44:01.720Z,35.33
2017-07-26T03:46:29.144Z,36.13
2017-07-26T03:48:56.538Z,36.33
2017-07-26T03:51:23.935Z,37.63
2017-07-26T03:53:51.484Z,37.77
2017-07-26T03:56:18.884Z,34.70
2017-07-26T03:58:46.288Z,35.03
2017-07-26T04:01:13.715Z,33.83
2017-07-26T04:03:41.102Z,33.80
2017-07-26T04:06:08.530Z,32.80
2017-07-26T04:08:35.940Z,31.33
2017-07-26T04:11:03.334Z,31.40
2017-07-26T04:13:30.726Z,30.90
2017-07-26T04:15:58.148Z,31.10
2017-07-26T04:18:25.562Z,30.57
2017-07-26T04:20:52.985Z,29.80
2017-07-26T04:23:20.383Z,30.30
2017-07-26T04:25:47.793Z,29.70
2017-07-26T04:28:15.214Z,30.20
2017-07-26T04:30:42.615Z,29.30
2017-07-26T04:33:10.019Z,30.60
2017-07-26T04:35:37.411Z,28.27
2017-07-26T04:38:04.819Z,28.83
2017-07-26T04:40:32.215Z,29.13
2017-07-26T04:42:59.615Z,27.83
2017-07-26T04:45:27.043Z,25.70
2017-07-26T04:47:54.439Z,24.33
2017-07-26T04:50:21.847Z,24.60
2017-07-26T04:52:49.254Z,24.70
2017-07-26T04:55:16.654Z,24.47
2017-07-26T04:57:44.067Z,25.63
2017-07-26T05:00:11.478Z,24.33
2017-07-26T05:02:38.879Z,24.07
2017-07-26T05:05:06.279Z,24.47
2017-07-26T05:07:33.726Z,24.57
2017-07-26T05:10:01.142Z,23.07
2017-07-26T05:12:28.545Z,24.00
2017-07-26T05:14:55.984Z,24.47
2017-07-26T05:17:23.379Z,25.00
2017-07-26T05:19:50.798Z,23.40
2017-07-26T05:22:18.195Z,25.67
2017-07-26T05:24:45.627Z,25.57
2017-07-26T05:27:13.019Z,27.20
2017-07-26T05:29:40.482Z,26.33
2017-07-26T05:32:07.887Z,25.93
2017-07-26T05:34:35.298Z,27.30
2017-07-26T05:37:02.711Z,27.23
2017-07-26T05:39:30.124Z,27.07
2017-07-26T05:41:57.530Z,27.10
2017-07-26T05:44:25.014Z,27.63
2017-07-26T05:46:52.422Z,28.73
2017-07-26T05:49:19.871Z,28.57
2017-07-26T05:51:47.288Z,27.73
2017-07-26T05:54:14.688Z,28.33
2017-07-26T05:56:42.161Z,29.97
2017-07-26T05:59:09.574Z,29.30
2017-07-26T06:01:36.987Z,28.00
2017-07-26T06:04:04.405Z,27.80
2017-07-26T06:06:31.810Z,27.93
2017-07-26T06:08:59.234Z,27.27
2017-07-26T06:11:26.671Z,28.43
2017-07-26T06:13:54.094Z,27.90
2017-07-26T06:16:21.523Z,29.83
2017-07-26T06:18:48.915Z,28.90
2017-07-26T06:21:16.337Z,28.53
2017-07-26T06:23:43.723Z,28.60
2017-07-26T06:26:11.165Z,28.80
2017-07-26T06:28:38.585Z,29.23
2017-07-26T06:31:06.026Z,29.17
2017-07-26T06:33:33.417Z,26.73
2017-07-26T06:36:00.919Z,30.77
2017-07-26T06:38:28.310Z,28.20
2017-07-26T06:40:55.719Z,26.53
2017-07-26T06:43:23.134Z,27.90
2017-07-26T06:45:50.562Z,28.17
2017-07-26T06:48:17.978Z,27.70
2017-07-26T06:50:45.408Z,26.17
2017-07-26T06:53:12.819Z,27.00
2017-07-26T06:55:40.206Z,27.30
2017-07-26T06:58:07.630Z,28.60
2017-07-26T07:00:35.042Z,28.40
2017-07-26T07:03:02.451Z,28.60
2017-07-26T07:05:30.871Z,26.93
2017-07-26T07:07:58.291Z,27.47
2017-07-26T07:10:25.703Z,27.50
2017-07-26T07:12:53.123Z,28.97
2017-07-26T07:15:20.525Z,28.17
2017-07-26T07:17:47.915Z,28.40
2017-07-26T07:20:15.335Z,28.00
2017-07-26T07:22:42.726Z,28.60
2017-07-26T07:25:10.123Z,29.03
2017-07-26T07:27:37.527Z,26.27
2017-07-26T07:30:04.922Z,28.07
2017-07-26T07:32:32.314Z,28.50
2017-07-26T07:34:59.727Z,28.67
2017-07-26T07:37:27.120Z,26.90
2017-07-26T07:39:54.516Z,28.63
2017-07-26T07:42:21.931Z,28.37
2017-07-26T07:44:49.324Z,28.20
2017-07-26T07:47:16.719Z,22.60
2017-07-26T07:49:44.130Z,20.97
2017-07-26T07:52:11.515Z,18.30
2017-07-26T07:54:38.911Z,16.80
2017-07-26T07:57:06.323Z,15.23
2017-07-26T07:59:33.742Z,15.03
2017-07-26T08:02:01.126Z,13.67
2017-07-26T08:04:28.658Z,13.63
2017-07-26T08:06:56.066Z,13.13
2017-07-26T08:09:23.454Z,13.80
2017-07-26T08:11:50.888Z,13.80
2017-07-26T08:14:18.281Z,13.90
2017-07-26T08:16:45.671Z,13.97
2017-07-26T08:19:13.138Z,14.20
2017-07-26T08:21:40.530Z,14.50
2017-07-26T08:24:07.918Z,15.83
2017-07-26T08:26:35.331Z,17.20
2017-07-26T08:29:02.735Z,15.03
2017-07-26T08:31:30.127Z,16.60
2017-07-26T08:33:57.540Z,16.67
2017-07-26T08:36:24.935Z,17.43
2017-07-26T08:38:52.331Z,16.93
2017-07-26T08:41:19.755Z,15.83
2017-07-26T08:43:47.139Z,17.40
2017-07-26T08:46:14.530Z,16.27
2017-07-26T08:48:41.950Z,17.23
2017-07-26T08:51:09.344Z,14.37
2017-07-26T08:53:36.743Z,14.17
2017-07-26T08:56:04.167Z,14.90
2017-07-26T08:58:31.564Z,14.77
2017-07-26T09:00:58.966Z,14.33
2017-07-26T09:03:26.381Z,14.23
2017-07-26T09:05:53.775Z,14.80
2017-07-26T09:08:21.179Z,14.27
2017-07-26T09:10:48.592Z,14.17
2017-07-26T09:13:15.988Z,14.00
2017-07-26T09:15:43.381Z,14.83
2017-07-26T09:18:10.787Z,14.17
2017-07-26T09:20:38.188Z,15.57
2017-07-26T09:23:05.578Z,14.33
2017-07-26T09:25:32.995Z,12.97
2017-07-26T09:28:00.391Z,13.50
2017-07-26T09:30:27.790Z,12.97
2017-07-26T09:32:55.198Z,13.17
2017-07-26T09:35:22.599Z,13.13
2017-07-26T09:37:50.283Z,12.73
2017-07-26T09:40:17.685Z,13.03
2017-07-26T09:42:45.099Z,13.00
2017-07-26T09:45:12.601Z,12.10
2017-07-26T09:47:40.023Z,12.47
2017-07-26T09:50:07.504Z,19.73
2017-07-26T09:52:34.951Z,12.43
2017-07-26T09:55:02.587Z,14.57
2017-07-26T09:57:30.884Z,11.90
2017-07-26T09:59:58.343Z,12.77
2017-07-26T10:02:25.795Z,11.80
2017-07-26T10:04:53.214Z,11.97
2017-07-26T10:07:20.611Z,11.37
2017-07-26T10:09:48.067Z,11.40
2017-07-26T10:12:15.476Z,11.23
2017-07-26T10:14:42.890Z,10.77
2017-07-26T10:17:10.337Z,10.87
2017-07-26T10:19:37.743Z,11.13
2017-07-26T10:22:05.167Z,11.37
2017-07-26T10:24:32.569Z,10.43
2017-07-26T10:26:59.971Z,10.77
2017-07-26T10:29:27.656Z,10.47
2017-07-26T10:31:55.083Z,11.50
2017-07-26T10:34:22.544Z,9.97
2017-07-26T10:36:49.950Z,10.27
2017-07-26T10:39:17.463Z,10.50
2017-07-26T10:41:44.874Z,9.90
2017-07-26T10:44:12.303Z,10.53
2017-07-26T10:46:39.749Z,12.27
2017-07-26T10:49:07.153Z,10.83
2017-07-26T10:51:34.607Z,11.37
2017-07-26T10:54:02.023Z,11.27
2017-07-26T10:59:35.420Z,12.47
2017-07-26T11:02:02.852Z,10.87
2017-07-26T11:04:30.251Z,10.30
2017-07-26T11:06:57.814Z,10.40
2017-07-26T11:09:25.234Z,11.60
2017-07-26T11:11:52.724Z,12.27
2017-07-26T11:14:20.262Z,10.00
2017-07-26T11:16:47.669Z,10.33
2017-07-26T11:19:15.069Z,10.83
2017-07-26T11:21:42.557Z,10.57
2017-07-26T11:24:09.972Z,10.57
2017-07-26T11:26:37.358Z,10.90
2017-07-26T11:29:04.801Z,10.50
2017-07-26T11:31:32.218Z,11.80
2017-07-26T11:33:59.606Z,12.17
2017-07-26T11:36:27.576Z,12.70
2017-07-26T11:38:54.955Z,13.07
2017-07-26T11:41:22.355Z,14.10
2017-07-26T11:43:49.797Z,12.80
2017-07-26T11:46:17.237Z,13.53
2017-07-26T11:48:44.685Z,14.03
2017-07-26T11:51:12.222Z,14.13
2017-07-26T11:53:39.630Z,13.47
2017-07-26T11:56:07.018Z,13.30
2017-07-26T11:58:34.540Z,15.03
2017-07-26T12:01:01.981Z,14.83
2017-07-26T12:03:30.194Z,15.40
2017-07-26T12:05:57.622Z,14.93
2017-07-26T12:08:24.994Z,15.00
2017-07-26T12:10:52.395Z,14.50
2017-07-26T12:13:21.319Z,14.73
2017-07-26T12:15:48.708Z,14.23
2017-07-26T12:18:16.115Z,14.33
2017-07-26T12:20:43.533Z,14.00
2017-07-26T12:23:10.950Z,13.10
2017-07-26T12:25:38.394Z,14.17
2017-07-26T12:28:06.138Z,14.60
2017-07-26T12:30:33.538Z,14.63
2017-07-26T12:33:00.952Z,14.90
2017-07-26T12:35:28.454Z,15.50
2017-07-26T12:37:55.842Z,14.30
2017-07-26T12:40:23.234Z,13.63
2017-07-26T12:42:50.821Z,13.97
2017-07-26T12:45:18.223Z,13.67
2017-07-26T12:47:45.630Z,14.23
2017-07-26T12:50:13.174Z,13.80
2017-07-26T12:52:40.571Z,14.10
2017-07-26T12:55:07.959Z,13.67
2017-07-26T12:57:35.458Z,12.70
2017-07-26T13:00:02.871Z,12.80
2017-07-26T13:02:30.274Z,11.70
2017-07-26T13:04:57.679Z,12.07
2017-07-26T13:07:25.104Z,12.13
2017-07-26T13:09:52.494Z,11.83
2017-07-26T13:12:19.919Z,12.63
2017-07-26T13:14:47.314Z,13.10
2017-07-26T13:17:14.705Z,13.23
2017-07-26T13:19:42.250Z,11.30
2017-07-26T13:22:09.634Z,12.50
2017-07-26T13:24:37.038Z,12.10
2017-07-26T13:27:04.655Z,12.43
2017-07-26T13:29:32.051Z,12.10
2017-07-26T13:31:59.446Z,12.87
2017-07-26T13:34:27.010Z,13.57
2017-07-26T13:36:54.406Z,13.03
2017-07-26T13:39:21.802Z,13.30
2017-07-26T13:41:49.207Z,15.80
2017-07-26T13:44:16.596Z,13.90
2017-07-26T13:46:44.021Z,15.97
2017-07-26T13:49:11.429Z,13.70
2017-07-26T13:51:38.819Z,15.40
2017-07-26T13:54:06.206Z,14.63
2017-07-26T13:56:33.630Z,14.27
2017-07-26T13:59:01.035Z,15.00
2017-07-26T14:01:28.450Z,13.60
2017-07-26T14:03:55.903Z,13.63
2017-07-26T14:06:23.286Z,14.83
2017-07-26T14:08:55.275Z,15.10
2017-07-26T14:11:22.681Z,15.57
2017-07-26T14:13:51.043Z,14.90
2017-07-26T14:16:18.419Z,15.30
2017-07-26T14:18:45.834Z,15.37
2017-07-26T14:21:13.235Z,14.50
2017-07-26T14:23:40.687Z,14.60
2017-07-26T14:26:08.278Z,15.13
2017-07-26T14:28:35.655Z,15.60
2017-07-26T14:31:03.058Z,13.93
2017-07-26T14:33:31.782Z,15.90
2017-07-26T14:35:59.170Z,15.10
2017-07-26T14:38:26.630Z,16.10
2017-07-26T14:40:54.143Z,15.90
2017-07-26T14:43:21.591Z,15.53
2017-07-26T14:45:49.066Z,14.80
2017-07-26T14:48:16.602Z,14.03
2017-07-26T14:50:44.779Z,15.53
2017-07-26T14:53:12.159Z,14.67
2017-07-26T14:55:40.239Z,14.40
2017-07-26T14:58:08.399Z,14.90
2017-07-26T15:00:35.790Z,14.70
2017-07-26T15:03:03.353Z,14.87
2017-07-26T15:05:31.214Z,14.40
2017-07-26T15:07:59.763Z,12.37
2017-07-26T15:10:28.051Z,12.57
2017-07-26T15:12:55.462Z,13.60
2017-07-26T15:15:23.030Z,14.10
2017-07-26T15:17:50.690Z,12.20
2017-07-26T15:20:18.214Z,14.70
2017-07-26T15:22:45.954Z,13.83
2017-07-26T15:25:13.996Z,12.60
2017-07-26T15:27:41.406Z,13.50
2017-07-26T15:30:08.867Z,12.77
2017-07-26T15:32:36.454Z,13.77
2017-07-26T15:35:03.852Z,12.93
2017-07-26T15:37:31.298Z,13.43
2017-07-26T15:39:58.938Z,14.57
2017-07-26T15:42:26.949Z,13.93
2017-07-26T15:44:54.336Z,15.00
2017-07-26T15:47:21.910Z,14.33
2017-07-26T15:49:49.322Z,13.77
2017-07-26T15:52:17.758Z,14.70
2017-07-26T15:54:45.180Z,13.87
2017-07-26T15:57:12.566Z,13.07
2017-07-26T15:59:39.962Z,12.07
2017-07-26T16:02:07.382Z,11.40
2017-07-26T16:04:34.816Z,13.47
2017-07-26T16:07:02.208Z,12.00
2017-07-26T16:09:29.630Z,13.43
2017-07-26T16:11:57.038Z,12.50
2017-07-26T16:14:24.464Z,11.93
2017-07-26T16:16:52.126Z,12.23
2017-07-26T16:19:19.538Z,11.20
2017-07-26T16:21:46.937Z,11.40
2017-07-26T16:24:14.362Z,12.60
2017-07-26T16:26:41.794Z,12.17
2017-07-26T16:29:09.191Z,12.27
2017-07-26T16:31:36.650Z,11.40
2017-07-26T16:34:04.099Z,10.93
2017-07-26T16:36:31.485Z,10.67
2017-07-26T16:38:58.886Z,11.90
2017-07-26T16:41:26.279Z,10.20
2017-07-26T16:43:53.674Z,10.50
2017-07-26T16:46:21.122Z,12.23
2017-07-26T16:48:48.526Z,16.20
2017-07-26T16:51:15.931Z,24.60
2017-07-26T16:53:43.470Z,13.33
2017-07-26T16:56:10.891Z,18.83
2017-07-26T16:58:38.303Z,11.43
2017-07-26T17:01:09.831Z,13.10
2017-07-26T17:03:37.258Z,12.40
2017-07-26T17:06:04.634Z,11.53
2017-07-26T17:08:32.080Z,10.60
2017-07-26T17:10:59.515Z,10.80
2017-07-26T17:13:26.905Z,9.40
2017-07-26T17:15:54.342Z,9.87
2017-07-26T17:18:21.726Z,9.63
2017-07-26T17:20:49.111Z,9.90
2017-07-26T17:23:16.546Z,10.10
2017-07-26T17:25:43.927Z,10.23
2017-07-26T17:28:11.362Z,9.70
2017-07-26T17:30:38.898Z,9.77
2017-07-26T17:33:06.291Z,9.50
2017-07-26T17:35:33.674Z,11.13
2017-07-26T17:38:01.214Z,9.53
2017-07-26T17:40:28.597Z,10.23
2017-07-26T17:42:55.985Z,9.67
2017-07-26T17:45:23.622Z,9.33
2017-07-26T17:47:51.007Z,9.63
2017-07-26T17:50:19.208Z,10.13
2017-07-26T17:52:46.742Z,9.90
2017-07-26T17:55:14.131Z,9.10
2017-07-26T17:57:41.515Z,9.53
2017-07-26T18:00:08.923Z,11.00
2017-07-26T18:02:36.311Z,10.37
2017-07-26T18:05:03.707Z,10.50
2017-07-26T18:07:31.296Z,10.10
2017-07-26T18:09:58.687Z,10.50
2017-07-26T18:12:26.066Z,9.93
2017-07-26T18:14:53.602Z,9.93
2017-07-26T18:17:21.002Z,10.70
2017-07-26T18:19:48.393Z,10.37
2017-07-26T18:22:15.882Z,10.07
2017-07-26T18:24:43.275Z,9.77
2017-07-26T18:27:11.806Z,10.40
2017-07-26T18:29:39.354Z,11.33
2017-07-26T18:32:07.227Z,11.43
2017-07-26T18:34:34.910Z,10.67
2017-07-26T18:37:02.491Z,10.67
2017-07-26T18:39:30.744Z,11.93
2017-07-26T18:41:58.160Z,12.03
2017-07-26T18:44:25.675Z,10.63
2017-07-26T18:46:53.085Z,11.90
2017-07-26T18:49:20.491Z,11.00
2017-07-26T18:51:47.898Z,11.70
2017-07-26T18:54:15.302Z,10.60
2017-07-26T18:56:42.720Z,13.03
2017-07-26T18:59:10.134Z,11.93
2017-07-26T19:01:37.534Z,12.97
2017-07-26T19:04:04.926Z,13.40
2017-07-26T19:06:32.726Z,12.73
2017-07-26T19:09:00.118Z,12.67
2017-07-26T19:11:27.510Z,13.83
2017-07-26T19:13:55.239Z,13.13
2017-07-26T19:16:22.626Z,13.57
2017-07-26T19:18:50.018Z,12.80
2017-07-26T19:21:17.467Z,12.90
2017-07-26T19:23:44.854Z,12.30
2017-07-26T19:26:12.252Z,12.97
2017-07-26T19:28:39.662Z,13.00
2017-07-26T19:31:07.063Z,12.60
2017-07-26T19:33:34.473Z,12.70
2017-07-26T19:36:02.026Z,13.00
2017-07-26T19:38:29.420Z,12.40
2017-07-26T19:40:56.810Z,12.73
2017-07-26T19:43:24.314Z,11.13
2017-07-26T19:45:51.706Z,12.60
2017-07-26T19:48:19.098Z,11.17
2017-07-26T19:50:46.646Z,11.70
2017-07-26T19:53:14.043Z,11.77
2017-07-26T19:55:41.435Z,12.00
2017-07-26T19:58:08.999Z,11.07
2017-07-26T20:00:36.395Z,11.90
2017-07-26T20:03:03.791Z,11.83
2017-07-26T20:05:31.338Z,12.70
2017-07-26T20:07:58.746Z,12.00
2017-07-26T20:10:26.138Z,11.43
2017-07-26T20:12:53.695Z,11.70
2017-07-26T20:15:21.950Z,10.50
2017-07-26T20:17:49.347Z,11.73
2017-07-26T20:20:16.894Z,11.40
2017-07-26T20:22:44.291Z,10.80
2017-07-26T20:25:11.678Z,11.00
2017-07-26T20:27:39.093Z,10.87
2017-07-26T20:30:06.486Z,10.70
2017-07-26T20:32:33.880Z,10.77
2017-07-26T20:35:01.296Z,11.00
2017-07-26T20:37:28.686Z,11.40
2017-07-26T20:39:56.078Z,11.70
2017-07-26T20:42:23.632Z,12.17
2017-07-26T20:44:51.022Z,11.53
2017-07-26T20:47:18.418Z,11.77
2017-07-26T20:49:45.962Z,11.10
2017-07-26T20:52:13.364Z,11.40
2017-07-26T20:54:40.755Z,12.03
2017-07-26T20:57:08.191Z,11.63
2017-07-26T20:59:35.582Z,11.57
2017-07-26T21:02:02.966Z,10.37
2017-07-26T21:04:30.515Z,11.30
2017-07-26T21:06:57.925Z,10.70
2017-07-26T21:09:25.314Z,11.17
2017-07-26T21:11:52.755Z,11.10
2017-07-26T21:14:20.142Z,10.20
2017-07-26T21:16:47.538Z,10.80
2017-07-26T21:19:14.958Z,11.30
2017-07-26T21:21:42.345Z,11.00
2017-07-26T21:24:09.739Z,11.67
2017-07-26T21:26:37.386Z,12.27
2017-07-26T21:29:04.777Z,11.53
2017-07-26T21:31:32.170Z,10.93
2017-07-26T21:33:59.763Z,11.30
2017-07-26T21:36:27.154Z,10.70
2017-07-26T21:38:54.555Z,11.27
2017-07-26T21:41:22.339Z,12.10
2017-07-26T21:43:49.735Z,12.10
2017-07-26T21:46:17.135Z,12.63
2017-07-26T21:48:44.918Z,13.13
2017-07-26T21:51:12.319Z,13.60
2017-07-26T21:53:39.704Z,14.13
2017-07-26T21:56:07.288Z,13.80
2017-07-26T21:58:34.683Z,14.23
2017-07-26T22:01:02.074Z,13.43
2017-07-26T22:03:29.483Z,13.87
2017-07-26T22:05:56.878Z,14.90
2017-07-26T22:08:24.267Z,15.40
2017-07-26T22:10:51.719Z,14.33
2017-07-26T22:13:19.110Z,16.03
2017-07-26T22:15:46.506Z,15.13
2017-07-26T22:18:14.002Z,16.17
2017-07-26T22:20:41.390Z,17.60
2017-07-26T22:23:08.779Z,16.20
2017-07-26T22:25:36.321Z,15.80
2017-07-26T22:28:03.714Z,14.63
2017-07-26T22:30:31.103Z,15.63
2017-07-26T22:32:58.514Z,16.10
2017-07-26T22:35:25.895Z,15.20
2017-07-26T22:37:53.286Z,15.03
2017-07-26T22:40:21.111Z,16.57
2017-07-26T22:42:48.503Z,15.40
2017-07-26T22:45:15.890Z,16.40
2017-07-26T22:47:43.302Z,15.50
2017-07-26T22:50:10.706Z,14.90
2017-07-26T22:52:38.093Z,14.70
2017-07-26T22:55:05.515Z,14.77
2017-07-26T22:57:32.903Z,14.80
2017-07-26T23:00:00.291Z,15.37
2017-07-26T23:02:27.863Z,15.60
2017-07-26T23:04:55.255Z,15.50
2017-07-26T23:07:22.665Z,15.90
2017-07-26T23:09:50.102Z,16.43
2017-07-26T23:12:17.511Z,14.93
2017-07-26T23:14:44.894Z,15.97
2017-07-26T23:17:12.329Z,16.27
2017-07-26T23:19:39.765Z,15.23
2017-07-26T23:22:07.174Z,14.00
2017-07-26T23:24:34.734Z,15.27
2017-07-26T23:27:02.118Z,15.70
2017-07-26T23:29:29.536Z,15.03
2017-07-26T23:31:57.030Z,16.10
2017-07-26T23:34:24.465Z,18.40
2017-07-26T23:36:51.874Z,17.13
2017-07-26T23:39:19.287Z,16.90
2017-07-26T23:41:46.711Z,17.90
2017-07-26T23:44:14.104Z,17.93
2017-07-26T23:46:41.558Z,18.53
2017-07-26T23:49:08.946Z,17.13
2017-07-26T23:51:36.379Z,18.50
2017-07-26T23:54:04.050Z,16.70
2017-07-26T23:56:31.450Z,18.80
2017-07-26T23:58:59.452Z,17.43
